Bradbury, Illinois
Current Conditions -  °F | °C
As of 5:53 PM on Friday 24 Oct 2014 (Local Time) from KMTO Reporting Station
Clear Clear  
Wind Chill: 62°   Ceiling: Unl
Heat Index: 62°   Visibility: 10mi
Dew Point: 53°   Wind: 5mph
Humidity: 72%   Direction: 260°W
Pressure: 30.02"   Gusts: NA
Location:  39.2896°N, 88.2485°W
Report Text: KMTO 242253Z AUTO 26004KT 10SM CLR 17/12 A3002 RMK AO2 SLP164 T01670117
Loading
Personal Weather Stations






























Interactive Weather Map
Tropical Storm Tracking
New forecast layout! Learn more

10-Day Weather Forecast

Advertisements
Track Severe Weather on mobile